sensor_id;sensor_type;location;lat;lon;timestamp;temperature;humidity
52531;DHT22;38441;52.894;6.040;2023-10-19T04:36:49;9.40;99.90
52531;DHT22;38441;52.894;6.040;2023-10-19T05:12:09;9.70;99.90
52531;DHT22;38441;52.894;6.040;2023-10-19T05:15:18;9.60;99.90
52531;DHT22;38441;52.894;6.040;2023-10-19T05:17:44;9.60;99.90
52531;DHT22;38441;52.894;6.040;2023-10-19T05:20:54;9.60;99.90
52531;DHT22;38441;52.894;6.040;2023-10-19T05:23:32;9.60;99.90
52531;DHT22;38441;52.894;6.040;2023-10-19T05:29:08;9.60;99.90
52531;DHT22;38441;52.894;6.040;2023-10-19T05:34:08;9.70;99.90
52531;DHT22;38441;52.894;6.040;2023-10-19T05:36:37;9.40;99.90
52531;DHT22;38441;52.894;6.040;2023-10-19T05:39:16;9.70;99.90
52531;DHT22;38441;52.894;6.040;2023-10-19T05:41:46;9.70;99.90
52531;DHT22;38441;52.894;6.040;2023-10-19T05:44:15;9.80;99.90
52531;DHT22;38441;52.894;6.040;2023-10-19T05:46:46;9.70;99.90
52531;DHT22;38441;52.894;6.040;2023-10-19T05:49:30;9.60;99.90
52531;DHT22;38441;52.894;6.040;2023-10-19T05:52:45;9.60;99.90
52531;DHT22;38441;52.894;6.040;2023-10-19T05:55:33;9.60;99.90
52531;DHT22;38441;52.894;6.040;2023-10-19T05:58:13;9.80;99.90
52531;DHT22;38441;52.894;6.040;2023-10-19T06:00:49;9.70;99.90
52531;DHT22;38441;52.894;6.040;2023-10-19T06:06:14;9.80;99.90
52531;DHT22;38441;52.894;6.040;2023-10-19T06:09:11;13.30;99.90
52531;DHT22;38441;52.894;6.040;2023-10-19T06:11:55;9.70;99.90
52531;DHT22;38441;52.894;6.040;2023-10-19T06:17:21;9.80;99.90
52531;DHT22;38441;52.894;6.040;2023-10-19T06:20:00;9.70;99.90
52531;DHT22;38441;52.894;6.040;2023-10-19T10:53:29;12.30;99.90
52531;DHT22;38441;52.894;6.040;2023-10-19T10:55:54;14.30;99.90
52531;DHT22;38441;52.894;6.040;2023-10-19T10:58:24;14.20;99.90
52531;DHT22;38441;52.894;6.040;2023-10-19T11:00:50;11.70;99.90
52531;DHT22;38441;52.894;6.040;2023-10-19T11:03:20;14.30;99.90
52531;DHT22;38441;52.894;6.040;2023-10-19T11:05:47;14.60;99.90
52531;DHT22;38441;52.894;6.040;2023-10-19T11:08:16;13.50;99.90
52531;DHT22;38441;52.894;6.040;2023-10-19T11:10:45;12.90;99.90
52531;DHT22;38441;52.894;6.040;2023-10-19T11:13:21;14.20;99.90
52531;DHT22;38441;52.894;6.040;2023-10-19T11:15:55;14.40;99.90
52531;DHT22;38441;52.894;6.040;2023-10-19T11:21:12;12.80;99.90
52531;DHT22;38441;52.894;6.040;2023-10-19T11:23:49;14.10;99.90
52531;DHT22;38441;52.894;6.040;2023-10-19T11:26:22;15.20;99.90
52531;DHT22;38441;52.894;6.040;2023-10-19T11:29:02;12.80;99.90
52531;DHT22;38441;52.894;6.040;2023-10-19T11:31:59;14.80;99.90
52531;DHT22;38441;52.894;6.040;2023-10-19T11:34:25;13.30;99.90
52531;DHT22;38441;52.894;6.040;2023-10-19T11:40:44;14.40;99.90
52531;DHT22;38441;52.894;6.040;2023-10-19T11:43:18;14.70;99.90
52531;DHT22;38441;52.894;6.040;2023-10-19T11:45:45;13.20;99.90
52531;DHT22;38441;52.894;6.040;2023-10-19T11:48:11;15.70;99.90
52531;DHT22;38441;52.894;6.040;2023-10-19T11:50:39;13.20;99.90
52531;DHT22;38441;52.894;6.040;2023-10-19T11:53:05;14.80;99.90
52531;DHT22;38441;52.894;6.040;2023-10-19T11:55:42;13.40;99.90
52531;DHT22;38441;52.894;6.040;2023-10-19T11:58:08;12.50;99.90
52531;DHT22;38441;52.894;6.040;2023-10-19T12:00:42;15.20;99.90
52531;DHT22;38441;52.894;6.040;2023-10-19T12:03:14;12.20;99.90
52531;DHT22;38441;52.894;6.040;2023-10-19T12:05:40;14.90;99.90
52531;DHT22;38441;52.894;6.040;2023-10-19T12:08:07;15.60;99.90
52531;DHT22;38441;52.894;6.040;2023-10-19T12:10:33;14.90;99.90
52531;DHT22;38441;52.894;6.040;2023-10-19T12:13:04;13.90;99.90
52531;DHT22;38441;52.894;6.040;2023-10-19T12:15:35;16.10;99.90
52531;DHT22;38441;52.894;6.040;2023-10-19T12:18:21;14.80;99.90
52531;DHT22;38441;52.894;6.040;2023-10-19T12:20:47;13.60;99.90
52531;DHT22;38441;52.894;6.040;2023-10-19T12:23:17;15.70;99.90
52531;DHT22;38441;52.894;6.040;2023-10-19T12:25:48;14.90;99.90
52531;DHT22;38441;52.894;6.040;2023-10-19T12:28:14;14.90;99.90
52531;DHT22;38441;52.894;6.040;2023-10-19T12:30:41;15.40;99.90
52531;DHT22;38441;52.894;6.040;2023-10-19T12:33:07;13.30;99.90
52531;DHT22;38441;52.894;6.040;2023-10-19T12:35:42;15.10;99.90
52531;DHT22;38441;52.894;6.040;2023-10-19T12:38:19;14.60;99.90
52531;DHT22;38441;52.894;6.040;2023-10-19T12:40:47;15.00;99.90
52531;DHT22;38441;52.894;6.040;2023-10-19T12:43:14;13.30;99.90
52531;DHT22;38441;52.894;6.040;2023-10-19T12:45:41;15.00;99.90
52531;DHT22;38441;52.894;6.040;2023-10-19T12:48:09;14.90;99.90
52531;DHT22;38441;52.894;6.040;2023-10-19T12:50:37;13.00;99.90
52531;DHT22;38441;52.894;6.040;2023-10-19T12:53:03;16.10;99.90
52531;DHT22;38441;52.894;6.040;2023-10-19T12:55:29;12.90;99.90
52531;DHT22;38441;52.894;6.040;2023-10-19T12:57:57;15.10;99.90
52531;DHT22;38441;52.894;6.040;2023-10-19T13:00:28;15.10;99.90
52531;DHT22;38441;52.894;6.040;2023-10-19T13:03:07;13.50;99.90
52531;DHT22;38441;52.894;6.040;2023-10-19T13:05:43;12.20;99.90
52531;DHT22;38441;52.894;6.040;2023-10-19T13:08:14;13.30;99.90
52531;DHT22;38441;52.894;6.040;2023-10-19T13:10:49;12.30;99.90
52531;DHT22;38441;52.894;6.040;2023-10-19T13:13:17;15.00;99.90
52531;DHT22;38441;52.894;6.040;2023-10-19T13:16:10;15.60;99.90
52531;DHT22;38441;52.894;6.040;2023-10-19T13:18:38;15.80;99.90
52531;DHT22;38441;52.894;6.040;2023-10-19T13:21:08;14.90;99.90
52531;DHT22;38441;52.894;6.040;2023-10-19T13:23:47;15.20;99.90
52531;DHT22;38441;52.894;6.040;2023-10-19T13:26:24;14.90;99.90
52531;DHT22;38441;52.894;6.040;2023-10-19T13:28:51;15.10;99.90
52531;DHT22;38441;52.894;6.040;2023-10-19T13:31:18;13.40;99.90
52531;DHT22;38441;52.894;6.040;2023-10-19T13:33:53;15.80;99.90
52531;DHT22;38441;52.894;6.040;2023-10-19T13:36:25;15.40;99.90
52531;DHT22;38441;52.894;6.040;2023-10-19T13:41:54;13.30;99.90
52531;DHT22;38441;52.894;6.040;2023-10-19T13:44:43;13.40;99.90
52531;DHT22;38441;52.894;6.040;2023-10-19T13:47:11;14.80;99.90
52531;DHT22;38441;52.894;6.040;2023-10-19T13:50:11;13.60;99.90
52531;DHT22;38441;52.894;6.040;2023-10-19T13:55:30;13.00;99.90
52531;DHT22;38441;52.894;6.040;2023-10-19T16:11:41;11.60;99.90
52531;DHT22;38441;52.894;6.040;2023-10-19T16:19:05;13.30;99.90
52531;DHT22;38441;52.894;6.040;2023-10-19T16:56:41;11.60;99.90
52531;DHT22;38441;52.894;6.040;2023-10-19T16:59:14;12.20;99.90
52531;DHT22;38441;52.894;6.040;2023-10-19T17:01:46;11.60;99.90
52531;DHT22;38441;52.894;6.040;2023-10-19T17:04:11;11.50;99.90
52531;DHT22;38441;52.894;6.040;2023-10-19T17:10:27;13.00;99.90
52531;DHT22;38441;52.894;6.040;2023-10-19T17:12:55;9.90;99.90
52531;DHT22;38441;52.894;6.040;2023-10-19T17:15:32;13.50;99.90
52531;DHT22;38441;52.894;6.040;2023-10-19T17:17:59;12.80;99.90
52531;DHT22;38441;52.894;6.040;2023-10-19T17:20:26;13.20;99.90
52531;DHT22;38441;52.894;6.040;2023-10-19T17:28:25;11.20;99.90
52531;DHT22;38441;52.894;6.040;2023-10-19T17:31:00;11.50;99.90
52531;DHT22;38441;52.894;6.040;2023-10-19T17:33:59;11.20;99.90
52531;DHT22;38441;52.894;6.040;2023-10-19T17:36:30;11.60;99.90
52531;DHT22;38441;52.894;6.040;2023-10-19T17:39:16;13.20;99.90
52531;DHT22;38441;52.894;6.040;2023-10-19T17:42:12;11.70;99.90
52531;DHT22;38441;52.894;6.040;2023-10-19T17:47:42;12.80;99.90
52531;DHT22;38441;52.894;6.040;2023-10-19T17:50:08;12.60;99.90
52531;DHT22;38441;52.894;6.040;2023-10-19T17:52:36;11.70;99.90
52531;DHT22;38441;52.894;6.040;2023-10-19T17:55:18;11.10;99.90
52531;DHT22;38441;52.894;6.040;2023-10-19T17:57:49;13.10;99.90
52531;DHT22;38441;52.894;6.040;2023-10-19T18:00:39;13.10;99.90
52531;DHT22;38441;52.894;6.040;2023-10-19T18:03:24;9.80;99.90
52531;DHT22;38441;52.894;6.040;2023-10-19T18:06:24;14.40;99.90
52531;DHT22;38441;52.894;6.040;2023-10-19T18:09:16;10.90;99.90
52531;DHT22;38441;52.894;6.040;2023-10-19T18:11:46;12.50;99.90
52531;DHT22;38441;52.894;6.040;2023-10-19T18:14:48;10.20;99.90
52531;DHT22;38441;52.894;6.040;2023-10-19T18:17:19;9.00;99.90
52531;DHT22;38441;52.894;6.040;2023-10-19T18:22:44;12.40;99.90
52531;DHT22;38441;52.894;6.040;2023-10-19T18:25:11;12.50;99.90
52531;DHT22;38441;52.894;6.040;2023-10-19T18:27:38;10.80;99.90
52531;DHT22;38441;52.894;6.040;2023-10-19T18:30:07;10.80;99.90
52531;DHT22;38441;52.894;6.040;2023-10-19T18:32:38;11.00;99.90
52531;DHT22;38441;52.894;6.040;2023-10-19T18:35:08;11.40;99.90
52531;DHT22;38441;52.894;6.040;2023-10-19T18:37:36;12.60;99.90
52531;DHT22;38441;52.894;6.040;2023-10-19T18:40:06;9.70;99.90
52531;DHT22;38441;52.894;6.040;2023-10-19T18:42:32;8.90;99.90
52531;DHT22;38441;52.894;6.040;2023-10-19T18:45:10;12.00;99.90
52531;DHT22;38441;52.894;6.040;2023-10-19T18:47:42;12.50;99.90
52531;DHT22;38441;52.894;6.040;2023-10-19T18:50:10;10.80;99.90
52531;DHT22;38441;52.894;6.040;2023-10-19T18:52:36;10.10;99.90
52531;DHT22;38441;52.894;6.040;2023-10-19T18:55:12;10.90;99.90
52531;DHT22;38441;52.894;6.040;2023-10-19T18:57:55;12.00;99.90
52531;DHT22;38441;52.894;6.040;2023-10-19T19:00:28;12.60;99.90
52531;DHT22;38441;52.894;6.040;2023-10-19T19:03:04;13.20;99.90
52531;DHT22;38441;52.894;6.040;2023-10-19T19:06:02;10.80;99.90
52531;DHT22;38441;52.894;6.040;2023-10-19T19:08:41;10.70;99.90
52531;DHT22;38441;52.894;6.040;2023-10-19T19:18:27;12.10;99.90
